sensor_id;sensor_type;location;lat;lon;timestamp;P1;durP1;ratioP1;P2;durP2;ratioP2
495;SDS011;39559;48.630;9.162;2023-04-09T00:01:39;17.90;;;14.20;;
495;SDS011;39559;48.630;9.162;2023-04-09T00:04:04;15.53;;;13.20;;
495;SDS011;39559;48.630;9.162;2023-04-09T00:06:30;17.53;;;13.90;;
495;SDS011;39559;48.630;9.162;2023-04-09T00:08:55;17.73;;;13.83;;
495;SDS011;39559;48.630;9.162;2023-04-09T00:11:21;17.93;;;13.83;;
495;SDS011;39559;48.630;9.162;2023-04-09T00:13:47;18.00;;;13.93;;
495;SDS011;39559;48.630;9.162;2023-04-09T00:16:12;15.70;;;13.43;;
495;SDS011;39559;48.630;9.162;2023-04-09T00:18:38;17.37;;;14.27;;
495;SDS011;39559;48.630;9.162;2023-04-09T00:23:12;19.05;;;14.50;;
495;SDS011;39559;48.630;9.162;2023-04-09T00:25:38;17.77;;;14.73;;
495;SDS011;39559;48.630;9.162;2023-04-09T00:28:03;20.97;;;14.90;;
495;SDS011;39559;48.630;9.162;2023-04-09T00:30:30;19.37;;;15.73;;
495;SDS011;39559;48.630;9.162;2023-04-09T00:32:55;17.30;;;14.48;;
495;SDS011;39559;48.630;9.162;2023-04-09T00:35:21;17.25;;;13.75;;
495;SDS011;39559;48.630;9.162;2023-04-09T00:37:47;18.40;;;14.20;;
495;SDS011;39559;48.630;9.162;2023-04-09T00:40:13;17.40;;;14.00;;
495;SDS011;39559;48.630;9.162;2023-04-09T00:42:38;18.00;;;13.93;;
495;SDS011;39559;48.630;9.162;2023-04-09T00:47:12;18.52;;;13.55;;
495;SDS011;39559;48.630;9.162;2023-04-09T00:49:37;16.77;;;13.10;;
495;SDS011;39559;48.630;9.162;2023-04-09T00:52:03;21.00;;;16.40;;
495;SDS011;39559;48.630;9.162;2023-04-09T00:54:29;19.57;;;14.83;;
495;SDS011;39559;48.630;9.162;2023-04-09T00:56:55;17.10;;;14.07;;
495;SDS011;39559;48.630;9.162;2023-04-09T00:59:23;18.65;;;14.43;;
495;SDS011;39559;48.630;9.162;2023-04-09T01:01:49;19.73;;;13.68;;
495;SDS011;39559;48.630;9.162;2023-04-09T01:04:15;19.00;;;13.93;;
495;SDS011;39559;48.630;9.162;2023-04-09T01:14:05;17.33;;;13.75;;
495;SDS011;39559;48.630;9.162;2023-04-09T01:16:39;19.75;;;14.77;;
495;SDS011;39559;48.630;9.162;2023-04-09T01:19:09;17.52;;;13.90;;
495;SDS011;39559;48.630;9.162;2023-04-09T01:21:47;16.08;;;13.25;;
495;SDS011;39559;48.630;9.162;2023-04-09T01:24:18;18.27;;;14.40;;
495;SDS011;39559;48.630;9.162;2023-04-09T01:27:07;15.93;;;12.63;;
495;SDS011;39559;48.630;9.162;2023-04-09T01:29:34;16.08;;;13.48;;
495;SDS011;39559;48.630;9.162;2023-04-09T01:32:06;18.92;;;14.15;;
495;SDS011;39559;48.630;9.162;2023-04-09T01:35:10;17.55;;;13.93;;
495;SDS011;39559;48.630;9.162;2023-04-09T01:37:37;16.10;;;13.77;;
495;SDS011;39559;48.630;9.162;2023-04-09T01:40:04;17.65;;;14.23;;
495;SDS011;39559;48.630;9.162;2023-04-09T01:42:31;17.75;;;13.80;;
495;SDS011;39559;48.630;9.162;2023-04-09T01:44:57;17.73;;;13.00;;
495;SDS011;39559;48.630;9.162;2023-04-09T01:47:25;16.05;;;12.90;;
495;SDS011;39559;48.630;9.162;2023-04-09T01:49:51;16.50;;;14.32;;
495;SDS011;39559;48.630;9.162;2023-04-09T01:52:18;15.73;;;12.52;;
495;SDS011;39559;48.630;9.162;2023-04-09T01:54:44;16.17;;;13.13;;
495;SDS011;39559;48.630;9.162;2023-04-09T01:59:10;17.73;;;14.48;;
495;SDS011;39559;48.630;9.162;2023-04-09T02:02:10;18.30;;;13.27;;
495;SDS011;39559;48.630;9.162;2023-04-09T02:04:41;18.58;;;14.32;;
495;SDS011;39559;48.630;9.162;2023-04-09T02:07:14;20.42;;;15.55;;
495;SDS011;39559;48.630;9.162;2023-04-09T02:09:41;18.42;;;14.23;;
495;SDS011;39559;48.630;9.162;2023-04-09T02:12:11;18.17;;;14.52;;
495;SDS011;39559;48.630;9.162;2023-04-09T02:14:38;18.77;;;13.82;;
495;SDS011;39559;48.630;9.162;2023-04-09T02:17:05;20.67;;;14.60;;
495;SDS011;39559;48.630;9.162;2023-04-09T02:19:40;15.90;;;13.90;;
495;SDS011;39559;48.630;9.162;2023-04-09T02:23:09;20.02;;;14.73;;
495;SDS011;39559;48.630;9.162;2023-04-09T02:25:34;17.30;;;14.10;;
495;SDS011;39559;48.630;9.162;2023-04-09T02:28:00;17.97;;;14.23;;
495;SDS011;39559;48.630;9.162;2023-04-09T02:30:25;16.57;;;14.27;;
495;SDS011;39559;48.630;9.162;2023-04-09T02:32:51;16.00;;;14.13;;
495;SDS011;39559;48.630;9.162;2023-04-09T02:35:16;16.60;;;13.50;;
495;SDS011;39559;48.630;9.162;2023-04-09T02:37:42;18.30;;;14.77;;
495;SDS011;39559;48.630;9.162;2023-04-09T02:40:08;15.93;;;14.00;;
495;SDS011;39559;48.630;9.162;2023-04-09T02:42:34;20.67;;;15.05;;
495;SDS011;39559;48.630;9.162;2023-04-09T02:47:09;17.58;;;14.30;;
495;SDS011;39559;48.630;9.162;2023-04-09T02:49:34;18.27;;;14.60;;
495;SDS011;39559;48.630;9.162;2023-04-09T02:52:00;20.63;;;15.13;;
495;SDS011;39559;48.630;9.162;2023-04-09T02:54:25;21.87;;;15.40;;
495;SDS011;39559;48.630;9.162;2023-04-09T02:56:51;16.87;;;13.73;;
495;SDS011;39559;48.630;9.162;2023-04-09T02:59:16;19.53;;;14.73;;
495;SDS011;39559;48.630;9.162;2023-04-09T03:01:42;18.17;;;14.50;;
495;SDS011;39559;48.630;9.162;2023-04-09T03:04:08;21.63;;;14.27;;
495;SDS011;39559;48.630;9.162;2023-04-09T03:06:33;18.93;;;14.10;;
495;SDS011;39559;48.630;9.162;2023-04-09T03:11:08;20.00;;;14.55;;
495;SDS011;39559;48.630;9.162;2023-04-09T03:13:34;21.03;;;14.70;;
495;SDS011;39559;48.630;9.162;2023-04-09T03:15:59;17.50;;;14.00;;
495;SDS011;39559;48.630;9.162;2023-04-09T03:18:25;18.50;;;14.67;;
495;SDS011;39559;48.630;9.162;2023-04-09T03:20:50;17.00;;;14.60;;
495;SDS011;39559;48.630;9.162;2023-04-09T03:23:16;19.50;;;15.30;;
495;SDS011;39559;48.630;9.162;2023-04-09T03:25:42;17.30;;;13.40;;
495;SDS011;39559;48.630;9.162;2023-04-09T03:28:07;22.73;;;14.53;;
495;SDS011;39559;48.630;9.162;2023-04-09T03:30:33;18.83;;;14.20;;
495;SDS011;39559;48.630;9.162;2023-04-09T03:35:08;22.50;;;14.75;;
495;SDS011;39559;48.630;9.162;2023-04-09T03:37:33;17.87;;;14.43;;
495;SDS011;39559;48.630;9.162;2023-04-09T03:39:59;20.37;;;15.00;;
495;SDS011;39559;48.630;9.162;2023-04-09T03:42:25;18.03;;;14.40;;
495;SDS011;39559;48.630;9.162;2023-04-09T03:44:52;18.60;;;15.50;;
495;SDS011;39559;48.630;9.162;2023-04-09T03:47:19;22.98;;;17.45;;
495;SDS011;39559;48.630;9.162;2023-04-09T03:49:44;22.33;;;15.83;;
495;SDS011;39559;48.630;9.162;2023-04-09T03:52:10;18.20;;;14.67;;
495;SDS011;39559;48.630;9.162;2023-04-09T03:54:35;21.30;;;15.80;;
495;SDS011;39559;48.630;9.162;2023-04-09T03:59:07;21.92;;;15.52;;
495;SDS011;39559;48.630;9.162;2023-04-09T04:01:33;21.40;;;16.07;;
495;SDS011;39559;48.630;9.162;2023-04-09T04:03:58;21.60;;;16.07;;
495;SDS011;39559;48.630;9.162;2023-04-09T04:06:24;21.40;;;15.73;;
495;SDS011;39559;48.630;9.162;2023-04-09T04:08:51;20.73;;;16.07;;
495;SDS011;39559;48.630;9.162;2023-04-09T04:11:16;19.95;;;14.65;;
495;SDS011;39559;48.630;9.162;2023-04-09T04:13:42;18.47;;;14.97;;
495;SDS011;39559;48.630;9.162;2023-04-09T04:16:08;19.77;;;15.13;;
495;SDS011;39559;48.630;9.162;2023-04-09T04:18:34;17.75;;;14.60;;
495;SDS011;39559;48.630;9.162;2023-04-09T04:23:07;17.30;;;14.05;;
495;SDS011;39559;48.630;9.162;2023-04-09T04:25:33;19.50;;;14.50;;
495;SDS011;39559;48.630;9.162;2023-04-09T04:27:58;22.17;;;15.57;;
495;SDS011;39559;48.630;9.162;2023-04-09T04:30:24;18.77;;;15.67;;
495;SDS011;39559;48.630;9.162;2023-04-09T04:32:50;20.37;;;15.37;;
495;SDS011;39559;48.630;9.162;2023-04-09T04:35:15;17.80;;;15.03;;
495;SDS011;39559;48.630;9.162;2023-04-09T04:37:41;19.07;;;14.40;;
495;SDS011;39559;48.630;9.162;2023-04-09T04:40:07;22.73;;;17.00;;
495;SDS011;39559;48.630;9.162;2023-04-09T04:42:33;21.83;;;15.00;;
495;SDS011;39559;48.630;9.162;2023-04-09T04:47:06;20.10;;;15.20;;
495;SDS011;39559;48.630;9.162;2023-04-09T04:49:32;18.03;;;14.60;;
495;SDS011;39559;48.630;9.162;2023-04-09T04:51:58;18.33;;;14.30;;
495;SDS011;39559;48.630;9.162;2023-04-09T04:54:23;17.03;;;13.97;;
495;SDS011;39559;48.630;9.162;2023-04-09T04:56:49;19.63;;;14.73;;
495;SDS011;39559;48.630;9.162;2023-04-09T04:59:14;20.83;;;15.83;;
495;SDS011;39559;48.630;9.162;2023-04-09T05:01:40;22.00;;;16.20;;
495;SDS011;39559;48.630;9.162;2023-04-09T05:04:06;19.50;;;15.23;;
495;SDS011;39559;48.630;9.162;2023-04-09T05:06:31;19.87;;;15.33;;
495;SDS011;39559;48.630;9.162;2023-04-09T05:11:09;19.77;;;15.32;;
495;SDS011;39559;48.630;9.162;2023-04-09T05:13:36;22.48;;;15.70;;
495;SDS011;39559;48.630;9.162;2023-04-09T05:16:01;23.03;;;16.70;;
495;SDS011;39559;48.630;9.162;2023-04-09T05:18:27;21.85;;;17.02;;
495;SDS011;39559;48.630;9.162;2023-04-09T05:20:53;23.60;;;15.97;;
495;SDS011;39559;48.630;9.162;2023-04-09T05:23:19;21.97;;;16.53;;
495;SDS011;39559;48.630;9.162;2023-04-09T05:25:44;22.80;;;16.50;;
495;SDS011;39559;48.630;9.162;2023-04-09T05:28:12;23.73;;;17.27;;
495;SDS011;39559;48.630;9.162;2023-04-09T05:30:38;22.60;;;16.10;;
495;SDS011;39559;48.630;9.162;2023-04-09T05:35:06;23.33;;;17.10;;
495;SDS011;39559;48.630;9.162;2023-04-09T05:37:32;24.02;;;17.05;;
495;SDS011;39559;48.630;9.162;2023-04-09T05:39:58;23.53;;;17.50;;
495;SDS011;39559;48.630;9.162;2023-04-09T05:42:23;19.33;;;16.00;;
495;SDS011;39559;48.630;9.162;2023-04-09T05:44:49;25.50;;;16.67;;
495;SDS011;39559;48.630;9.162;2023-04-09T05:47:15;21.07;;;16.40;;
495;SDS011;39559;48.630;9.162;2023-04-09T05:49:40;20.33;;;15.67;;
495;SDS011;39559;48.630;9.162;2023-04-09T05:52:06;19.30;;;15.30;;
495;SDS011;39559;48.630;9.162;2023-04-09T05:54:31;19.23;;;15.33;;
495;SDS011;39559;48.630;9.162;2023-04-09T05:59:06;17.00;;;14.00;;
495;SDS011;39559;48.630;9.162;2023-04-09T06:01:32;16.17;;;13.50;;
495;SDS011;39559;48.630;9.162;2023-04-09T06:03:57;18.20;;;15.40;;
495;SDS011;39559;48.630;9.162;2023-04-09T06:06:23;21.33;;;16.33;;
495;SDS011;39559;48.630;9.162;2023-04-09T06:08:48;19.53;;;15.50;;
495;SDS011;39559;48.630;9.162;2023-04-09T06:11:14;18.83;;;16.07;;
495;SDS011;39559;48.630;9.162;2023-04-09T06:13:40;21.60;;;16.10;;
495;SDS011;39559;48.630;9.162;2023-04-09T06:16:06;21.10;;;17.92;;
495;SDS011;39559;48.630;9.162;2023-04-09T06:18:33;23.25;;;16.17;;
495;SDS011;39559;48.630;9.162;2023-04-09T06:23:06;20.90;;;15.43;;
495;SDS011;39559;48.630;9.162;2023-04-09T06:25:31;20.40;;;17.37;;
495;SDS011;39559;48.630;9.162;2023-04-09T06:27:57;22.17;;;17.63;;
495;SDS011;39559;48.630;9.162;2023-04-09T06:30:22;22.23;;;17.30;;
495;SDS011;39559;48.630;9.162;2023-04-09T06:32:49;22.77;;;17.23;;
495;SDS011;39559;48.630;9.162;2023-04-09T06:35:15;21.15;;;16.60;;
495;SDS011;39559;48.630;9.162;2023-04-09T06:37:40;20.33;;;16.00;;
495;SDS011;39559;48.630;9.162;2023-04-09T06:40:06;19.77;;;15.97;;
495;SDS011;39559;48.630;9.162;2023-04-09T06:42:32;23.88;;;16.52;;
495;SDS011;39559;48.630;9.162;2023-04-09T06:47:06;19.08;;;15.60;;
495;SDS011;39559;48.630;9.162;2023-04-09T06:49:32;21.30;;;16.63;;
495;SDS011;39559;48.630;9.162;2023-04-09T06:51:58;19.17;;;16.00;;
495;SDS011;39559;48.630;9.162;2023-04-09T06:54:24;20.83;;;15.63;;
495;SDS011;39559;48.630;9.162;2023-04-09T06:56:50;18.30;;;15.53;;
495;SDS011;39559;48.630;9.162;2023-04-09T06:59:16;20.87;;;16.63;;
495;SDS011;39559;48.630;9.162;2023-04-09T07:01:41;18.00;;;15.30;;
495;SDS011;39559;48.630;9.162;2023-04-09T07:04:07;19.40;;;15.40;;
495;SDS011;39559;48.630;9.162;2023-04-09T07:06:32;18.33;;;14.13;;
495;SDS011;39559;48.630;9.162;2023-04-09T07:11:07;19.23;;;14.82;;
495;SDS011;39559;48.630;9.162;2023-04-09T07:13:33;18.90;;;14.57;;
495;SDS011;39559;48.630;9.162;2023-04-09T07:15:58;17.37;;;13.80;;
495;SDS011;39559;48.630;9.162;2023-04-09T07:18:24;17.70;;;13.63;;
495;SDS011;39559;48.630;9.162;2023-04-09T07:20:50;18.33;;;14.30;;
495;SDS011;39559;48.630;9.162;2023-04-09T07:23:17;17.58;;;13.85;;
495;SDS011;39559;48.630;9.162;2023-04-09T07:25:43;17.53;;;14.70;;
495;SDS011;39559;48.630;9.162;2023-04-09T07:28:09;21.03;;;15.07;;
495;SDS011;39559;48.630;9.162;2023-04-09T07:30:36;18.80;;;14.35;;
495;SDS011;39559;48.630;9.162;2023-04-09T07:35:06;17.00;;;13.90;;
495;SDS011;39559;48.630;9.162;2023-04-09T07:37:34;17.20;;;14.18;;
495;SDS011;39559;48.630;9.162;2023-04-09T07:40:00;15.30;;;12.35;;
495;SDS011;39559;48.630;9.162;2023-04-09T07:42:28;15.65;;;12.80;;
495;SDS011;39559;48.630;9.162;2023-04-09T07:44:54;15.45;;;11.32;;
495;SDS011;39559;48.630;9.162;2023-04-09T07:47:21;14.80;;;12.05;;
495;SDS011;39559;48.630;9.162;2023-04-09T07:49:47;15.30;;;11.75;;
495;SDS011;39559;48.630;9.162;2023-04-09T07:52:13;14.43;;;11.17;;
495;SDS011;39559;48.630;9.162;2023-04-09T07:54:39;14.10;;;11.43;;
495;SDS011;39559;48.630;9.162;2023-04-09T07:59:05;12.02;;;10.27;;
495;SDS011;39559;48.630;9.162;2023-04-09T08:01:31;11.50;;;10.30;;
495;SDS011;39559;48.630;9.162;2023-04-09T08:03:57;14.30;;;10.53;;
495;SDS011;39559;48.630;9.162;2023-04-09T08:06:22;10.90;;;9.20;;
495;SDS011;39559;48.630;9.162;2023-04-09T08:08:48;12.10;;;10.83;;
495;SDS011;39559;48.630;9.162;2023-04-09T08:11:13;12.60;;;11.30;;
495;SDS011;39559;48.630;9.162;2023-04-09T08:13:39;13.57;;;10.73;;
495;SDS011;39559;48.630;9.162;2023-04-09T08:16:05;11.93;;;10.07;;
495;SDS011;39559;48.630;9.162;2023-04-09T08:18:30;11.50;;;9.87;;
495;SDS011;39559;48.630;9.162;2023-04-09T08:23:05;11.75;;;9.13;;
495;SDS011;39559;48.630;9.162;2023-04-09T08:25:31;11.80;;;9.20;;
495;SDS011;39559;48.630;9.162;2023-04-09T08:27:56;10.03;;;8.70;;
495;SDS011;39559;48.630;9.162;2023-04-09T08:30:22;11.13;;;9.43;;
495;SDS011;39559;48.630;9.162;2023-04-09T08:32:47;9.67;;;8.70;;
495;SDS011;39559;48.630;9.162;2023-04-09T08:35:13;10.20;;;8.30;;
495;SDS011;39559;48.630;9.162;2023-04-09T08:37:39;9.50;;;8.33;;
495;SDS011;39559;48.630;9.162;2023-04-09T08:40:04;9.83;;;8.83;;
495;SDS011;39559;48.630;9.162;2023-04-09T08:42:30;9.18;;;8.27;;
495;SDS011;39559;48.630;9.162;2023-04-09T08:47:08;9.23;;;8.32;;
495;SDS011;39559;48.630;9.162;2023-04-09T08:49:36;13.57;;;9.25;;
495;SDS011;39559;48.630;9.162;2023-04-09T08:52:05;10.93;;;9.00;;
495;SDS011;39559;48.630;9.162;2023-04-09T08:54:32;9.30;;;7.57;;
495;SDS011;39559;48.630;9.162;2023-04-09T08:56:57;9.60;;;8.47;;
495;SDS011;39559;48.630;9.162;2023-04-09T08:59:23;10.53;;;8.53;;
495;SDS011;39559;48.630;9.162;2023-04-09T09:01:49;8.90;;;8.00;;
495;SDS011;39559;48.630;9.162;2023-04-09T09:04:44;11.25;;;8.70;;
495;SDS011;39559;48.630;9.162;2023-04-09T09:07:15;10.02;;;8.95;;
495;SDS011;39559;48.630;9.162;2023-04-09T09:11:04;11.63;;;9.27;;
495;SDS011;39559;48.630;9.162;2023-04-09T09:13:31;10.55;;;9.15;;
495;SDS011;39559;48.630;9.162;2023-04-09T09:16:12;10.07;;;8.80;;
495;SDS011;39559;48.630;9.162;2023-04-09T09:18:40;9.13;;;7.65;;
495;SDS011;39559;48.630;9.162;2023-04-09T09:21:14;10.70;;;9.50;;
495;SDS011;39559;48.630;9.162;2023-04-09T09:23:42;9.18;;;8.27;;
495;SDS011;39559;48.630;9.162;2023-04-09T09:26:14;8.35;;;7.55;;
495;SDS011;39559;48.630;9.162;2023-04-09T09:28:46;9.70;;;8.73;;
495;SDS011;39559;48.630;9.162;2023-04-09T09:31:13;10.25;;;8.60;;
495;SDS011;39559;48.630;9.162;2023-04-09T09:35:05;8.98;;;8.10;;
495;SDS011;39559;48.630;9.162;2023-04-09T09:37:31;8.93;;;8.02;;
495;SDS011;39559;48.630;9.162;2023-04-09T09:39:58;10.07;;;8.77;;
495;SDS011;39559;48.630;9.162;2023-04-09T09:42:25;9.32;;;8.32;;
495;SDS011;39559;48.630;9.162;2023-04-09T09:44:54;9.32;;;8.43;;
495;SDS011;39559;48.630;9.162;2023-04-09T09:47:21;8.45;;;7.60;;
495;SDS011;39559;48.630;9.162;2023-04-09T09:49:48;10.20;;;9.10;;
495;SDS011;39559;48.630;9.162;2023-04-09T09:52:14;10.93;;;8.45;;
495;SDS011;39559;48.630;9.162;2023-04-09T09:54:42;8.45;;;7.55;;
495;SDS011;39559;48.630;9.162;2023-04-09T09:59:09;9.23;;;7.93;;
495;SDS011;39559;48.630;9.162;2023-04-09T10:01:41;8.25;;;7.25;;
495;SDS011;39559;48.630;9.162;2023-04-09T10:04:09;7.90;;;7.10;;
495;SDS011;39559;48.630;9.162;2023-04-09T10:06:42;7.38;;;6.70;;
495;SDS011;39559;48.630;9.162;2023-04-09T10:09:08;7.50;;;6.75;;
495;SDS011;39559;48.630;9.162;2023-04-09T10:11:35;8.18;;;7.38;;
495;SDS011;39559;48.630;9.162;2023-04-09T10:14:02;8.70;;;7.80;;
495;SDS011;39559;48.630;9.162;2023-04-09T10:16:29;8.38;;;7.35;;
495;SDS011;39559;48.630;9.162;2023-04-09T10:18:56;8.75;;;7.43;;
495;SDS011;39559;48.630;9.162;2023-04-09T10:23:05;7.93;;;7.00;;
495;SDS011;39559;48.630;9.162;2023-04-09T10:25:36;10.55;;;9.55;;
495;SDS011;39559;48.630;9.162;2023-04-09T10:28:01;8.83;;;7.83;;
495;SDS011;39559;48.630;9.162;2023-04-09T10:30:39;7.65;;;6.95;;
495;SDS011;39559;48.630;9.162;2023-04-09T10:33:08;6.93;;;6.30;;
495;SDS011;39559;48.630;9.162;2023-04-09T10:35:35;7.53;;;6.82;;
495;SDS011;39559;48.630;9.162;2023-04-09T10:38:02;7.67;;;6.87;;
495;SDS011;39559;48.630;9.162;2023-04-09T10:40:27;6.47;;;5.80;;
495;SDS011;39559;48.630;9.162;2023-04-09T10:42:56;6.50;;;5.90;;
495;SDS011;39559;48.630;9.162;2023-04-09T10:47:02;6.03;;;5.43;;
495;SDS011;39559;48.630;9.162;2023-04-09T10:49:31;6.90;;;6.30;;
495;SDS011;39559;48.630;9.162;2023-04-09T10:52:01;7.28;;;6.10;;
495;SDS011;39559;48.630;9.162;2023-04-09T10:59:35;5.93;;;5.43;;
495;SDS011;39559;48.630;9.162;2023-04-09T11:02:01;6.72;;;5.97;;
495;SDS011;39559;48.630;9.162;2023-04-09T11:04:36;6.35;;;5.75;;
495;SDS011;39559;48.630;9.162;2023-04-09T11:07:12;6.78;;;6.18;;
495;SDS011;39559;48.630;9.162;2023-04-09T11:11:00;7.18;;;6.57;;
495;SDS011;39559;48.630;9.162;2023-04-09T11:13:28;6.90;;;6.30;;
495;SDS011;39559;48.630;9.162;2023-04-09T11:15:54;6.72;;;6.13;;
495;SDS011;39559;48.630;9.162;2023-04-09T11:20:57;8.18;;;7.35;;
495;SDS011;39559;48.630;9.162;2023-04-09T11:23:25;8.23;;;6.85;;
495;SDS011;39559;48.630;9.162;2023-04-09T11:25:52;7.47;;;6.68;;
495;SDS011;39559;48.630;9.162;2023-04-09T11:28:18;8.30;;;7.50;;
495;SDS011;39559;48.630;9.162;2023-04-09T11:30:44;7.75;;;6.95;;
495;SDS011;39559;48.630;9.162;2023-04-09T11:34:59;10.45;;;7.25;;
495;SDS011;39559;48.630;9.162;2023-04-09T11:37:25;8.57;;;7.77;;
495;SDS011;39559;48.630;9.162;2023-04-09T11:39:52;8.20;;;7.40;;
495;SDS011;39559;48.630;9.162;2023-04-09T11:42:19;8.52;;;7.72;;
495;SDS011;39559;48.630;9.162;2023-04-09T11:44:46;8.98;;;8.18;;
495;SDS011;39559;48.630;9.162;2023-04-09T11:47:13;8.75;;;7.95;;
495;SDS011;39559;48.630;9.162;2023-04-09T11:49:41;8.20;;;7.40;;
495;SDS011;39559;48.630;9.162;2023-04-09T11:52:08;8.23;;;7.45;;
495;SDS011;39559;48.630;9.162;2023-04-09T11:54:34;8.43;;;7.63;;
495;SDS011;39559;48.630;9.162;2023-04-09T11:58:57;8.07;;;7.28;;
495;SDS011;39559;48.630;9.162;2023-04-09T12:01:23;8.03;;;7.23;;
495;SDS011;39559;48.630;9.162;2023-04-09T12:03:52;8.40;;;7.60;;
495;SDS011;39559;48.630;9.162;2023-04-09T12:06:21;8.18;;;7.38;;
495;SDS011;39559;48.630;9.162;2023-04-09T12:08:56;8.85;;;7.93;;
495;SDS011;39559;48.630;9.162;2023-04-09T12:11:29;8.68;;;7.88;;
495;SDS011;39559;48.630;9.162;2023-04-09T12:13:59;9.10;;;8.20;;
495;SDS011;39559;48.630;9.162;2023-04-09T12:16:29;7.88;;;7.18;;
495;SDS011;39559;48.630;9.162;2023-04-09T12:18:59;8.63;;;7.82;;
495;SDS011;39559;48.630;9.162;2023-04-09T12:22:55;8.93;;;8.05;;
495;SDS011;39559;48.630;9.162;2023-04-09T12:25:21;8.20;;;7.40;;
495;SDS011;39559;48.630;9.162;2023-04-09T12:27:47;7.17;;;6.47;;
495;SDS011;39559;48.630;9.162;2023-04-09T12:30:12;8.20;;;7.40;;
495;SDS011;39559;48.630;9.162;2023-04-09T12:32:38;8.00;;;7.30;;
495;SDS011;39559;48.630;9.162;2023-04-09T12:35:04;8.90;;;8.00;;
495;SDS011;39559;48.630;9.162;2023-04-09T12:37:30;8.00;;;7.20;;
495;SDS011;39559;48.630;9.162;2023-04-09T12:39:55;8.57;;;7.77;;
495;SDS011;39559;48.630;9.162;2023-04-09T12:42:21;8.00;;;7.23;;
495;SDS011;39559;48.630;9.162;2023-04-09T12:46:53;7.78;;;7.05;;
495;SDS011;39559;48.630;9.162;2023-04-09T12:49:19;8.33;;;7.53;;
495;SDS011;39559;48.630;9.162;2023-04-09T12:51:45;8.18;;;7.38;;
495;SDS011;39559;48.630;9.162;2023-04-09T12:54:11;7.37;;;6.77;;
495;SDS011;39559;48.630;9.162;2023-04-09T12:56:36;7.50;;;6.80;;
495;SDS011;39559;48.630;9.162;2023-04-09T12:59:02;8.23;;;7.43;;
495;SDS011;39559;48.630;9.162;2023-04-09T13:01:28;8.47;;;7.77;;
495;SDS011;39559;48.630;9.162;2023-04-09T13:03:53;7.87;;;7.17;;
495;SDS011;39559;48.630;9.162;2023-04-09T13:06:19;7.50;;;6.80;;
495;SDS011;39559;48.630;9.162;2023-04-09T13:10:51;7.70;;;6.97;;
495;SDS011;39559;48.630;9.162;2023-04-09T13:13:17;7.60;;;6.90;;
495;SDS011;39559;48.630;9.162;2023-04-09T13:15:42;8.87;;;7.97;;
495;SDS011;39559;48.630;9.162;2023-04-09T13:18:12;7.43;;;6.83;;
495;SDS011;39559;48.630;9.162;2023-04-09T13:20:37;7.57;;;6.88;;
495;SDS011;39559;48.630;9.162;2023-04-09T13:23:04;7.80;;;7.10;;
495;SDS011;39559;48.630;9.162;2023-04-09T13:25:30;8.10;;;7.40;;
495;SDS011;39559;48.630;9.162;2023-04-09T13:27:55;7.00;;;6.40;;
495;SDS011;39559;48.630;9.162;2023-04-09T13:30:21;7.63;;;6.93;;
495;SDS011;39559;48.630;9.162;2023-04-09T13:34:49;7.30;;;6.60;;
495;SDS011;39559;48.630;9.162;2023-04-09T13:37:15;6.73;;;6.13;;
495;SDS011;39559;48.630;9.162;2023-04-09T13:39:41;7.27;;;6.67;;
495;SDS011;39559;48.630;9.162;2023-04-09T13:42:08;7.47;;;6.77;;
495;SDS011;39559;48.630;9.162;2023-04-09T13:44:33;7.90;;;7.20;;
495;SDS011;39559;48.630;9.162;2023-04-09T13:46:59;7.20;;;6.53;;
495;SDS011;39559;48.630;9.162;2023-04-09T13:49:24;6.73;;;6.13;;
495;SDS011;39559;48.630;9.162;2023-04-09T13:51:51;6.85;;;6.25;;
495;SDS011;39559;48.630;9.162;2023-04-09T13:54:17;7.70;;;6.97;;
495;SDS011;39559;48.630;9.162;2023-04-09T13:58:45;6.80;;;6.20;;
495;SDS011;39559;48.630;9.162;2023-04-09T14:01:12;6.60;;;5.93;;
495;SDS011;39559;48.630;9.162;2023-04-09T14:03:48;6.28;;;5.78;;
495;SDS011;39559;48.630;9.162;2023-04-09T14:06:13;7.90;;;7.20;;
495;SDS011;39559;48.630;9.162;2023-04-09T14:08:39;6.90;;;6.30;;
495;SDS011;39559;48.630;9.162;2023-04-09T14:11:05;6.73;;;6.13;;
495;SDS011;39559;48.630;9.162;2023-04-09T14:13:30;6.73;;;6.13;;
495;SDS011;39559;48.630;9.162;2023-04-09T14:15:56;6.60;;;6.00;;
495;SDS011;39559;48.630;9.162;2023-04-09T14:18:21;6.90;;;6.20;;
495;SDS011;39559;48.630;9.162;2023-04-09T14:22:42;6.38;;;5.78;;
495;SDS011;39559;48.630;9.162;2023-04-09T14:25:13;7.97;;;7.18;;
495;SDS011;39559;48.630;9.162;2023-04-09T14:27:38;7.50;;;6.80;;
495;SDS011;39559;48.630;9.162;2023-04-09T14:30:04;6.73;;;6.10;;
495;SDS011;39559;48.630;9.162;2023-04-09T14:32:32;7.30;;;6.45;;
495;SDS011;39559;48.630;9.162;2023-04-09T14:34:57;6.43;;;5.83;;
495;SDS011;39559;48.630;9.162;2023-04-09T14:37:23;7.40;;;6.70;;
495;SDS011;39559;48.630;9.162;2023-04-09T14:39:48;6.37;;;5.87;;
495;SDS011;39559;48.630;9.162;2023-04-09T14:42:14;5.87;;;5.37;;
495;SDS011;39559;48.630;9.162;2023-04-09T14:46:39;7.15;;;6.40;;
495;SDS011;39559;48.630;9.162;2023-04-09T14:49:05;7.00;;;6.30;;
495;SDS011;39559;48.630;9.162;2023-04-09T14:51:30;6.73;;;6.13;;
495;SDS011;39559;48.630;9.162;2023-04-09T14:53:56;7.07;;;6.37;;
495;SDS011;39559;48.630;9.162;2023-04-09T14:56:22;7.30;;;6.60;;
495;SDS011;39559;48.630;9.162;2023-04-09T14:58:49;6.88;;;6.28;;
495;SDS011;39559;48.630;9.162;2023-04-09T15:01:15;7.82;;;7.10;;
495;SDS011;39559;48.630;9.162;2023-04-09T15:03:41;7.83;;;6.87;;
495;SDS011;39559;48.630;9.162;2023-04-09T15:06:09;7.18;;;6.53;;
495;SDS011;39559;48.630;9.162;2023-04-09T15:10:36;7.72;;;7.00;;
495;SDS011;39559;48.630;9.162;2023-04-09T15:13:01;7.20;;;6.50;;
495;SDS011;39559;48.630;9.162;2023-04-09T15:15:27;7.33;;;6.63;;
495;SDS011;39559;48.630;9.162;2023-04-09T15:17:52;8.03;;;7.07;;
495;SDS011;39559;48.630;9.162;2023-04-09T15:20:18;8.50;;;7.70;;
495;SDS011;39559;48.630;9.162;2023-04-09T15:22:43;8.60;;;7.80;;
495;SDS011;39559;48.630;9.162;2023-04-09T15:25:09;7.10;;;6.40;;
495;SDS011;39559;48.630;9.162;2023-04-09T15:27:35;7.40;;;6.70;;
495;SDS011;39559;48.630;9.162;2023-04-09T15:30:00;8.87;;;7.97;;
495;SDS011;39559;48.630;9.162;2023-04-09T15:34:32;7.10;;;6.40;;
495;SDS011;39559;48.630;9.162;2023-04-09T15:36:58;7.90;;;7.10;;
495;SDS011;39559;48.630;9.162;2023-04-09T15:39:23;7.43;;;6.73;;
495;SDS011;39559;48.630;9.162;2023-04-09T15:41:52;8.82;;;7.97;;
495;SDS011;39559;48.630;9.162;2023-04-09T15:44:22;9.80;;;8.80;;
495;SDS011;39559;48.630;9.162;2023-04-09T15:46:48;8.15;;;7.40;;
495;SDS011;39559;48.630;9.162;2023-04-09T15:49:15;7.32;;;6.68;;
495;SDS011;39559;48.630;9.162;2023-04-09T15:51:41;8.60;;;7.80;;
495;SDS011;39559;48.630;9.162;2023-04-09T15:54:06;7.70;;;6.87;;
495;SDS011;39559;48.630;9.162;2023-04-09T15:58:29;7.43;;;6.72;;
495;SDS011;39559;48.630;9.162;2023-04-09T16:00:55;7.35;;;6.65;;
495;SDS011;39559;48.630;9.162;2023-04-09T16:03:21;7.60;;;6.90;;
495;SDS011;39559;48.630;9.162;2023-04-09T16:05:46;7.73;;;6.93;;
495;SDS011;39559;48.630;9.162;2023-04-09T16:08:12;7.60;;;6.80;;
495;SDS011;39559;48.630;9.162;2023-04-09T16:10:38;8.20;;;7.20;;
495;SDS011;39559;48.630;9.162;2023-04-09T16:13:04;8.20;;;7.50;;
495;SDS011;39559;48.630;9.162;2023-04-09T16:15:29;7.33;;;6.63;;
495;SDS011;39559;48.630;9.162;2023-04-09T16:17:55;7.80;;;7.03;;
495;SDS011;39559;48.630;9.162;2023-04-09T16:22:23;7.90;;;7.07;;
495;SDS011;39559;48.630;9.162;2023-04-09T16:24:49;6.70;;;6.10;;
495;SDS011;39559;48.630;9.162;2023-04-09T16:27:15;7.03;;;6.33;;
495;SDS011;39559;48.630;9.162;2023-04-09T16:29:40;7.87;;;7.10;;